createdAt,value
2017-05-14T00:00:55.070Z,4.18
2017-05-14T00:03:22.623Z,4.78
2017-05-14T00:05:50.132Z,4.16
2017-05-14T00:08:18.050Z,4.20
2017-05-14T00:10:45.573Z,3.34
2017-05-14T00:13:13.096Z,4.88
2017-05-14T00:15:40.693Z,4.08
2017-05-14T00:18:08.228Z,4.38
2017-05-14T00:20:35.911Z,4.04
2017-05-14T00:23:03.446Z,4.50
2017-05-14T00:25:30.973Z,4.52
2017-05-14T00:27:58.535Z,4.30
2017-05-14T00:30:26.108Z,5.44
2017-05-14T00:32:53.712Z,5.50
2017-05-14T00:35:21.227Z,4.82
2017-05-14T00:37:48.813Z,6.90
2017-05-14T00:40:16.323Z,6.34
2017-05-14T00:42:44.086Z,5.90
2017-05-14T00:45:11.604Z,6.46
2017-05-14T00:47:39.127Z,6.50
2017-05-14T00:50:06.687Z,5.70
2017-05-14T00:52:34.203Z,5.90
2017-05-14T00:55:02.004Z,5.70
2017-05-14T00:57:29.541Z,5.64
2017-05-14T00:59:57.071Z,6.54
2017-05-14T01:02:24.683Z,6.32
2017-05-14T01:04:52.251Z,5.60
2017-05-14T01:07:19.968Z,6.92
2017-05-14T01:09:47.544Z,6.12
2017-05-14T01:12:15.110Z,7.02
2017-05-14T01:14:42.688Z,6.98
2017-05-14T01:17:10.217Z,5.76
2017-05-14T01:19:37.776Z,5.82
2017-05-14T01:22:05.293Z,7.58
2017-05-14T01:24:32.977Z,7.48
2017-05-14T01:27:00.539Z,6.52
2017-05-14T01:29:28.054Z,7.38
2017-05-14T01:31:55.873Z,6.28
2017-05-14T01:34:23.387Z,6.74
2017-05-14T01:36:50.913Z,6.62
2017-05-14T01:39:18.644Z,8.06
2017-05-14T01:41:46.160Z,7.20
2017-05-14T01:44:13.692Z,6.00
2017-05-14T01:46:41.267Z,6.06
2017-05-14T01:49:08.819Z,5.88
2017-05-14T01:51:36.423Z,6.24
2017-05-14T01:54:03.976Z,6.08
2017-05-14T01:56:31.590Z,5.72
2017-05-14T01:58:59.120Z,5.82
2017-05-14T02:01:26.866Z,7.28
2017-05-14T02:03:54.392Z,6.24
2017-05-14T02:06:21.923Z,6.46
2017-05-14T02:08:49.485Z,6.70
2017-05-14T02:11:17.132Z,5.84
2017-05-14T02:13:44.790Z,7.44
2017-05-14T02:16:12.410Z,6.48
2017-05-14T02:18:40.191Z,5.72
2017-05-14T02:21:07.712Z,5.78
2017-05-14T02:23:35.231Z,6.00
2017-05-14T02:26:02.779Z,6.86
2017-05-14T02:28:30.296Z,5.72
2017-05-14T02:30:57.961Z,6.54
2017-05-14T02:33:25.503Z,7.24
2017-05-14T02:35:53.028Z,6.80
2017-05-14T02:38:20.590Z,6.60
2017-05-14T02:40:48.105Z,7.08
2017-05-14T02:43:15.674Z,7.04
2017-05-14T02:45:43.196Z,6.66
2017-05-14T02:48:10.900Z,6.30
2017-05-14T02:50:38.499Z,6.34
2017-05-14T02:53:06.031Z,6.88
2017-05-14T02:55:33.627Z,6.66
2017-05-14T02:58:01.196Z,8.18
2017-05-14T03:00:29.058Z,6.16
2017-05-14T03:02:56.570Z,6.40
2017-05-14T03:05:24.112Z,7.14
2017-05-14T03:07:51.730Z,6.90
2017-05-14T03:10:19.263Z,7.54
2017-05-14T03:12:46.832Z,7.02
2017-05-14T03:15:14.334Z,6.70
2017-05-14T03:17:41.994Z,6.82
2017-05-14T03:20:09.515Z,7.04
2017-05-14T03:22:37.044Z,7.44
2017-05-14T03:25:04.598Z,8.12
2017-05-14T03:27:32.106Z,7.54
2017-05-14T03:29:59.664Z,7.42
2017-05-14T03:32:27.191Z,7.56
2017-05-14T03:34:55.163Z,8.18
2017-05-14T03:37:22.751Z,7.50
2017-05-14T03:39:50.328Z,8.32
2017-05-14T03:42:18.023Z,7.52
2017-05-14T03:44:45.523Z,7.72
2017-05-14T03:47:13.070Z,7.78
2017-05-14T03:49:40.582Z,7.44
2017-05-14T03:52:08.139Z,7.12
2017-05-14T03:54:35.655Z,7.94
2017-05-14T03:57:03.311Z,8.00
2017-05-14T03:59:30.837Z,7.66
2017-05-14T04:01:58.352Z,7.80
2017-05-14T04:04:25.903Z,8.78
2017-05-14T04:06:53.433Z,8.20
2017-05-14T04:09:21.414Z,7.46
2017-05-14T04:11:48.940Z,8.14
2017-05-14T04:14:16.451Z,8.52
2017-05-14T04:16:44.114Z,8.44
2017-05-14T04:19:11.643Z,7.54
2017-05-14T04:21:39.215Z,7.72
2017-05-14T04:24:06.838Z,8.00
2017-05-14T04:26:34.382Z,8.34
2017-05-14T04:29:01.896Z,8.68
2017-05-14T04:31:29.400Z,8.54
2017-05-14T04:33:56.948Z,8.62
2017-05-14T04:36:24.460Z,9.96
2017-05-14T04:38:52.018Z,9.36
2017-05-14T04:41:19.528Z,8.92
2017-05-14T04:43:47.299Z,9.04
2017-05-14T04:46:14.826Z,10.06
2017-05-14T04:48:42.351Z,10.20
2017-05-14T04:51:09.959Z,10.16
2017-05-14T04:53:37.566Z,10.18
2017-05-14T04:56:05.234Z,10.26
2017-05-14T04:58:32.792Z,10.32
2017-05-14T05:01:00.318Z,11.88
2017-05-14T05:03:27.928Z,10.40
2017-05-14T05:05:55.443Z,11.60
2017-05-14T05:08:22.991Z,12.42
2017-05-14T05:10:50.517Z,13.60
2017-05-14T05:13:18.078Z,13.68
2017-05-14T05:15:45.627Z,13.56
2017-05-14T05:18:13.338Z,13.32
2017-05-14T05:20:40.873Z,13.90
2017-05-14T05:23:08.403Z,14.16
2017-05-14T05:25:35.976Z,15.54
2017-05-14T05:28:03.499Z,14.70
2017-05-14T05:30:31.058Z,14.94
2017-05-14T05:32:58.584Z,14.84
2017-05-14T05:35:26.148Z,16.24
2017-05-14T05:37:53.671Z,15.78
2017-05-14T05:40:21.355Z,15.10
2017-05-14T05:42:48.892Z,14.30
2017-05-14T05:45:16.467Z,14.00
2017-05-14T05:47:44.024Z,14.80
2017-05-14T05:50:11.571Z,12.06
2017-05-14T05:52:39.790Z,15.10
2017-05-14T05:55:07.308Z,13.76
2017-05-14T05:57:34.868Z,15.16
2017-05-14T06:00:02.427Z,13.00
2017-05-14T06:02:30.320Z,13.38
2017-05-14T06:04:57.967Z,14.12
2017-05-14T06:07:25.536Z,15.18
2017-05-14T06:09:53.127Z,13.82
2017-05-14T06:12:20.775Z,13.62
2017-05-14T06:14:48.360Z,12.52
2017-05-14T06:17:15.916Z,12.64
2017-05-14T06:19:43.604Z,12.06
2017-05-14T06:22:11.147Z,12.82
2017-05-14T06:24:38.720Z,12.22
2017-05-14T06:27:06.259Z,12.52
2017-05-14T06:29:33.813Z,12.84
2017-05-14T06:32:01.347Z,12.76
2017-05-14T06:34:29.263Z,12.24
2017-05-14T06:36:56.822Z,12.86
2017-05-14T06:39:24.365Z,11.08
2017-05-14T06:41:51.918Z,12.30
2017-05-14T06:44:19.477Z,12.18
2017-05-14T06:46:47.040Z,11.16
2017-05-14T06:49:14.596Z,11.28
2017-05-14T06:51:42.225Z,10.78
2017-05-14T06:54:09.756Z,10.74
2017-05-14T06:56:37.343Z,11.20
2017-05-14T06:59:04.904Z,10.24
2017-05-14T07:01:32.439Z,9.38
2017-05-14T07:04:00.103Z,9.66
2017-05-14T07:06:27.618Z,9.66
2017-05-14T07:08:55.192Z,9.34
2017-05-14T07:11:22.724Z,8.72
2017-05-14T07:13:50.292Z,9.02
2017-05-14T07:16:17.886Z,9.42
2017-05-14T07:18:45.579Z,9.48
2017-05-14T07:21:13.164Z,8.92
2017-05-14T07:23:40.790Z,8.58
2017-05-14T07:26:08.410Z,9.38
2017-05-14T07:28:35.951Z,8.30
2017-05-14T07:31:03.599Z,8.00
2017-05-14T07:33:31.143Z,9.12
2017-05-14T07:35:58.756Z,8.74
2017-05-14T07:38:26.291Z,8.10
2017-05-14T07:40:54.907Z,7.88
2017-05-14T07:43:22.972Z,7.62
2017-05-14T07:45:50.488Z,6.98
2017-05-14T07:48:18.060Z,7.02
2017-05-14T07:50:45.645Z,6.02
2017-05-14T07:53:13.239Z,6.32
2017-05-14T07:55:42.994Z,5.46
2017-05-14T07:58:11.316Z,7.62
2017-05-14T08:00:38.911Z,8.00
2017-05-14T08:03:06.468Z,7.24
2017-05-14T08:05:34.108Z,6.10
2017-05-14T08:08:01.623Z,6.40
2017-05-14T08:10:29.600Z,4.98
2017-05-14T08:12:57.175Z,6.74
2017-05-14T08:15:26.542Z,4.42
2017-05-14T08:17:54.059Z,4.00
2017-05-14T08:20:22.894Z,4.24
2017-05-14T08:22:50.714Z,3.72
2017-05-14T08:25:18.245Z,4.64
2017-05-14T08:27:46.451Z,4.16
2017-05-14T08:30:14.312Z,3.78
2017-05-14T08:32:41.847Z,3.68
2017-05-14T08:35:09.410Z,3.24
2017-05-14T08:37:36.932Z,4.20
2017-05-14T08:40:04.487Z,3.68
2017-05-14T08:42:32.000Z,3.88
2017-05-14T08:44:59.542Z,6.02
2017-05-14T08:47:27.071Z,3.82
2017-05-14T08:49:54.614Z,3.74
2017-05-14T08:52:22.152Z,5.16
2017-05-14T08:54:49.811Z,4.00
2017-05-14T08:57:17.330Z,6.58
2017-05-14T08:59:44.851Z,3.82
2017-05-14T09:02:12.395Z,3.22
2017-05-14T09:04:39.959Z,3.56
2017-05-14T09:07:07.523Z,3.96
2017-05-14T09:09:35.037Z,4.30
2017-05-14T09:12:02.788Z,4.02
2017-05-14T09:14:30.307Z,3.32
2017-05-14T09:16:57.821Z,3.98
2017-05-14T09:19:25.433Z,4.38
2017-05-14T09:21:52.944Z,4.58
2017-05-14T09:24:20.527Z,4.96
2017-05-14T09:26:48.078Z,4.30
2017-05-14T09:29:15.767Z,3.90
2017-05-14T09:31:43.333Z,4.10
2017-05-14T09:34:10.900Z,3.84
2017-05-14T09:36:38.504Z,3.28
2017-05-14T09:39:06.103Z,3.72
2017-05-14T09:41:33.780Z,4.06
2017-05-14T09:44:01.302Z,4.28
2017-05-14T09:46:28.820Z,3.90
2017-05-14T09:48:56.424Z,5.16
2017-05-14T09:51:23.951Z,7.46
2017-05-14T09:53:51.683Z,3.96
2017-05-14T09:56:19.248Z,4.44
2017-05-14T09:58:46.794Z,3.20
2017-05-14T10:01:14.404Z,3.12
2017-05-14T10:03:41.929Z,3.12
2017-05-14T10:06:09.675Z,3.60
2017-05-14T10:08:37.187Z,3.12
2017-05-14T10:11:05.005Z,2.60
2017-05-14T10:13:32.604Z,3.50
2017-05-14T10:16:00.129Z,3.02
2017-05-14T10:18:27.827Z,3.06
2017-05-14T10:20:55.353Z,2.50
2017-05-14T10:23:22.876Z,2.80
2017-05-14T10:25:50.450Z,2.42
2017-05-14T10:28:17.985Z,2.50
2017-05-14T10:30:45.536Z,2.20
2017-05-14T10:33:13.057Z,2.06
2017-05-14T10:35:40.611Z,1.74
2017-05-14T10:38:08.201Z,2.55
2017-05-14T10:40:35.847Z,2.10
2017-05-14T10:43:03.831Z,2.76
2017-05-14T10:45:32.740Z,4.38
2017-05-14T10:48:00.313Z,2.24
2017-05-14T10:50:27.904Z,1.98
2017-05-14T10:52:55.485Z,2.22
2017-05-14T10:55:23.039Z,1.90
2017-05-14T10:57:50.747Z,2.00
2017-05-14T11:00:18.234Z,2.08
2017-05-14T11:02:45.786Z,2.26
2017-05-14T11:05:13.405Z,2.30
2017-05-14T11:07:40.997Z,2.28
2017-05-14T11:10:08.560Z,1.70
2017-05-14T11:12:36.080Z,2.20
2017-05-14T11:15:04.005Z,2.18
2017-05-14T11:17:31.639Z,1.52
2017-05-14T11:19:59.247Z,2.34
2017-05-14T11:22:26.838Z,2.80
2017-05-14T11:24:54.432Z,2.54
2017-05-14T11:27:22.160Z,3.50
2017-05-14T11:29:49.700Z,2.62
2017-05-14T11:32:17.340Z,3.36
2017-05-14T11:34:44.910Z,2.50
2017-05-14T11:37:12.452Z,2.70
2017-05-14T11:39:40.031Z,2.78
2017-05-14T11:42:07.567Z,2.12
2017-05-14T11:44:35.412Z,3.10
2017-05-14T11:47:02.948Z,1.92
2017-05-14T11:49:30.528Z,2.08
2017-05-14T11:51:58.100Z,1.88
2017-05-14T11:54:25.620Z,1.86
2017-05-14T11:56:53.143Z,2.24
2017-05-14T11:59:20.859Z,1.90
2017-05-14T12:01:48.376Z,2.50
2017-05-14T12:04:15.892Z,2.32
2017-05-14T12:06:43.460Z,2.12
2017-05-14T12:09:10.997Z,2.12
2017-05-14T12:11:38.679Z,2.58
2017-05-14T12:14:06.247Z,2.00
2017-05-14T12:16:33.727Z,2.60
2017-05-14T12:19:01.285Z,2.56
2017-05-14T12:21:28.767Z,2.18
2017-05-14T12:23:56.518Z,2.48
2017-05-14T12:26:24.199Z,3.12
2017-05-14T12:28:51.731Z,2.90
2017-05-14T12:31:19.361Z,2.44
2017-05-14T12:33:46.913Z,2.62
2017-05-14T12:36:14.605Z,2.56
2017-05-14T12:38:42.145Z,2.42
2017-05-14T12:41:09.713Z,2.50
2017-05-14T12:43:37.299Z,2.50
2017-05-14T12:46:04.840Z,2.84
2017-05-14T12:48:32.504Z,2.30
2017-05-14T12:51:00.027Z,2.70
2017-05-14T12:53:27.662Z,2.76
2017-05-14T12:55:55.304Z,2.30
2017-05-14T12:58:22.883Z,2.18
2017-05-14T13:00:50.656Z,2.02
2017-05-14T13:03:18.168Z,2.16
2017-05-14T13:05:45.688Z,2.08
2017-05-14T13:08:13.248Z,1.78
2017-05-14T13:10:40.759Z,1.90
2017-05-14T13:13:08.315Z,1.70
2017-05-14T13:15:35.873Z,1.50
2017-05-14T13:18:03.550Z,1.90
2017-05-14T13:20:31.071Z,1.70
2017-05-14T13:22:58.611Z,1.60
2017-05-14T13:25:26.195Z,1.98
2017-05-14T13:27:53.727Z,2.50
2017-05-14T13:30:21.400Z,2.16
2017-05-14T13:32:48.931Z,2.46
2017-05-14T13:35:16.460Z,1.92
2017-05-14T13:37:44.037Z,1.92
2017-05-14T13:40:11.591Z,1.84
2017-05-14T13:42:39.266Z,2.12
2017-05-14T13:45:06.876Z,2.30
2017-05-14T13:47:34.399Z,2.92
2017-05-14T13:50:02.052Z,3.12
2017-05-14T13:52:29.574Z,2.68
2017-05-14T13:54:57.291Z,2.18
2017-05-14T13:57:24.840Z,2.46
2017-05-14T13:59:52.524Z,2.18
2017-05-14T14:02:20.057Z,2.20
2017-05-14T14:04:47.638Z,2.44
2017-05-14T14:07:15.257Z,4.64
2017-05-14T14:09:42.798Z,9.04
2017-05-14T14:12:10.397Z,2.50
2017-05-14T14:14:37.919Z,2.60
2017-05-14T14:17:05.692Z,2.40
2017-05-14T14:19:33.275Z,2.52
2017-05-14T14:22:00.807Z,9.44
2017-05-14T14:24:28.401Z,3.74
2017-05-14T14:26:55.908Z,5.32
2017-05-14T14:29:23.635Z,2.78
2017-05-14T14:31:51.153Z,4.38
2017-05-14T14:34:18.692Z,2.44
2017-05-14T14:36:46.257Z,2.26
2017-05-14T14:39:13.795Z,4.02
2017-05-14T14:41:41.468Z,5.36
2017-05-14T14:44:08.979Z,2.20
2017-05-14T14:46:36.551Z,1.82
2017-05-14T14:49:04.175Z,1.94
2017-05-14T14:51:31.706Z,1.96
2017-05-14T14:53:59.352Z,2.32
2017-05-14T14:56:26.863Z,1.74
2017-05-14T14:58:54.908Z,2.00
2017-05-14T15:01:22.415Z,2.02
2017-05-14T15:03:49.957Z,1.70
2017-05-14T15:06:17.539Z,1.90
2017-05-14T15:08:45.071Z,1.70
2017-05-14T15:11:12.639Z,2.50
2017-05-14T15:13:40.171Z,1.78
2017-05-14T15:16:07.945Z,2.00
2017-05-14T15:18:35.463Z,2.78
2017-05-14T15:21:02.973Z,2.12
2017-05-14T15:23:30.636Z,2.44
2017-05-14T15:25:58.189Z,2.26
2017-05-14T15:28:25.735Z,2.24
2017-05-14T15:30:53.645Z,2.42
2017-05-14T15:33:21.170Z,2.68
2017-05-14T15:35:48.707Z,9.02
2017-05-14T15:38:16.255Z,5.80
2017-05-14T15:40:43.760Z,2.10
2017-05-14T15:43:11.834Z,3.80
2017-05-14T15:45:39.383Z,3.42
2017-05-14T15:48:06.924Z,1.60
2017-05-14T15:50:34.480Z,1.68
2017-05-14T15:53:02.033Z,1.46
2017-05-14T15:55:29.595Z,1.20
2017-05-14T15:57:57.177Z,1.24
2017-05-14T16:00:24.736Z,1.60
2017-05-14T16:02:52.398Z,1.30
2017-05-14T16:05:19.920Z,1.56
2017-05-14T16:07:47.467Z,1.36
2017-05-14T16:10:15.040Z,1.20
2017-05-14T16:12:42.598Z,2.06
2017-05-14T16:15:10.459Z,2.80
2017-05-14T16:17:37.973Z,1.70
2017-05-14T16:20:05.498Z,1.36
2017-05-14T16:22:33.053Z,1.46
2017-05-14T16:25:00.563Z,1.42
2017-05-14T16:27:28.341Z,1.50
2017-05-14T16:29:55.898Z,1.34
2017-05-14T16:32:23.403Z,1.24
2017-05-14T16:34:50.979Z,1.62
2017-05-14T16:37:18.521Z,1.42
2017-05-14T16:39:46.475Z,1.12
2017-05-14T16:42:14.002Z,1.18
2017-05-14T16:44:41.559Z,1.20
2017-05-14T16:47:09.139Z,1.20
2017-05-14T16:49:36.676Z,0.90
2017-05-14T16:52:04.273Z,1.00
2017-05-14T16:54:31.787Z,1.32
2017-05-14T16:56:59.351Z,1.30
2017-05-14T16:59:26.859Z,4.22
2017-05-14T17:01:54.610Z,1.00
2017-05-14T17:04:22.158Z,1.70
2017-05-14T17:06:49.716Z,0.96
2017-05-14T17:09:17.274Z,1.06
2017-05-14T17:11:44.792Z,1.06
2017-05-14T17:14:12.850Z,1.22
2017-05-14T17:16:40.450Z,0.94
2017-05-14T17:19:08.151Z,1.20
2017-05-14T17:21:35.697Z,0.92
2017-05-14T17:24:03.291Z,1.20
2017-05-14T17:26:30.915Z,1.10
2017-05-14T17:28:58.508Z,1.14
2017-05-14T17:31:26.207Z,1.28
2017-05-14T17:33:53.767Z,1.22
2017-05-14T17:36:21.355Z,1.96
2017-05-14T17:38:48.938Z,1.62
2017-05-14T17:41:16.460Z,70.40
2017-05-14T17:43:44.212Z,164.36
2017-05-14T17:46:11.763Z,57.26
2017-05-14T17:48:39.315Z,27.76
2017-05-14T17:51:06.963Z,2.24
2017-05-14T17:53:34.523Z,3.60
2017-05-14T17:56:02.192Z,2.72
2017-05-14T17:58:29.720Z,8.10
2017-05-14T18:00:57.275Z,43.92
2017-05-14T18:03:24.845Z,2.54
2017-05-14T18:05:52.360Z,5.28
2017-05-14T18:08:20.303Z,6.58
2017-05-14T18:10:47.900Z,1.24
2017-05-14T18:13:15.507Z,3.84
2017-05-14T18:15:43.089Z,8.34
2017-05-14T18:18:10.659Z,1.34
2017-05-14T18:20:38.381Z,1.80
2017-05-14T18:23:06.000Z,1.18
2017-05-14T18:25:33.536Z,1.30
2017-05-14T18:28:01.143Z,2.54
2017-05-14T18:30:28.741Z,2.22
2017-05-14T18:32:56.394Z,1.70
2017-05-14T18:35:24.013Z,1.78
2017-05-14T18:37:51.948Z,1.66
2017-05-14T18:40:19.570Z,1.78
2017-05-14T18:42:47.104Z,29.92
2017-05-14T18:45:14.664Z,3.66
2017-05-14T18:47:42.239Z,2.04
2017-05-14T18:50:09.846Z,1.74
2017-05-14T18:52:37.347Z,1.80
2017-05-14T18:55:05.100Z,2.18
2017-05-14T18:57:32.632Z,1.38
2017-05-14T19:00:00.207Z,2.44
2017-05-14T19:02:27.779Z,1.92
2017-05-14T19:04:59.765Z,2.02
2017-05-14T19:07:27.383Z,2.28
2017-05-14T19:09:54.915Z,2.12
2017-05-14T19:12:22.459Z,1.94
2017-05-14T19:14:50.436Z,1.28
2017-05-14T19:17:17.961Z,1.80
2017-05-14T19:19:45.516Z,1.16
2017-05-14T19:22:13.094Z,1.50
2017-05-14T19:24:40.834Z,2.32
2017-05-14T19:27:08.424Z,2.12
2017-05-14T19:29:35.982Z,4.72
2017-05-14T19:32:03.577Z,2.22
2017-05-14T19:34:31.142Z,2.22
2017-05-14T19:36:58.847Z,2.48
2017-05-14T19:39:26.365Z,2.12
2017-05-14T19:41:53.916Z,2.92
2017-05-14T19:44:21.560Z,2.90
2017-05-14T19:46:49.114Z,2.64
2017-05-14T19:49:16.685Z,2.12
2017-05-14T19:51:44.222Z,1.88
2017-05-14T19:54:12.053Z,3.34
2017-05-14T19:56:39.681Z,4.90
2017-05-14T19:59:07.205Z,3.76
2017-05-14T20:01:34.795Z,4.62
2017-05-14T20:04:02.376Z,3.28
2017-05-14T20:06:30.007Z,4.22
2017-05-14T20:08:57.591Z,3.68
2017-05-14T20:11:25.274Z,5.04
2017-05-14T20:13:52.811Z,4.58
2017-05-14T20:16:20.389Z,4.54
2017-05-14T20:18:48.144Z,5.78
2017-05-14T20:21:15.900Z,3.98
2017-05-14T20:23:43.455Z,4.08
2017-05-14T20:26:11.003Z,4.50
2017-05-14T20:28:38.854Z,4.56
2017-05-14T20:31:06.395Z,4.50
2017-05-14T20:33:33.919Z,3.94
2017-05-14T20:36:01.527Z,4.82
2017-05-14T20:38:29.062Z,5.20
2017-05-14T20:40:56.628Z,4.68
2017-05-14T20:43:24.184Z,4.72
2017-05-14T20:45:52.077Z,3.98
2017-05-14T20:48:19.608Z,5.12
2017-05-14T20:50:47.163Z,5.00
2017-05-14T20:53:14.736Z,4.12
2017-05-14T20:55:42.270Z,3.56
2017-05-14T20:58:09.936Z,3.82
2017-05-14T21:00:37.464Z,4.08
2017-05-14T21:03:04.989Z,4.96
2017-05-14T21:05:32.568Z,4.14
2017-05-14T21:08:00.110Z,4.34
2017-05-14T21:10:28.055Z,4.88
2017-05-14T21:12:55.591Z,4.84
2017-05-14T21:15:23.125Z,5.90
2017-05-14T21:17:50.683Z,5.66
2017-05-14T21:20:18.212Z,6.94
2017-05-14T21:22:45.900Z,8.40
2017-05-14T21:25:13.425Z,7.44
2017-05-14T21:27:40.956Z,8.52
2017-05-14T21:30:08.550Z,9.42
2017-05-14T21:32:36.121Z,10.38
2017-05-14T21:35:03.702Z,10.44
2017-05-14T21:37:31.243Z,12.10
2017-05-14T21:39:59.008Z,12.72
2017-05-14T21:42:26.543Z,12.32
2017-05-14T21:44:54.071Z,14.22
2017-05-14T21:47:21.651Z,14.06
2017-05-14T21:49:49.191Z,14.92
2017-05-14T21:52:16.940Z,15.86
2017-05-14T21:54:44.734Z,13.82
2017-05-14T21:57:12.239Z,14.90
2017-05-14T21:59:39.807Z,14.32
2017-05-14T22:02:07.397Z,16.30
2017-05-14T22:04:34.999Z,15.72
2017-05-14T22:07:02.550Z,13.56
2017-05-14T22:09:30.143Z,15.38
2017-05-14T22:11:57.671Z,14.04
2017-05-14T22:14:25.344Z,13.24
2017-05-14T22:16:52.916Z,13.46
2017-05-14T22:19:20.477Z,14.72
2017-05-14T22:21:48.093Z,14.12
2017-05-14T22:24:15.611Z,14.52
2017-05-14T22:26:43.577Z,14.50
2017-05-14T22:29:11.203Z,14.96
2017-05-14T22:31:38.749Z,14.24
2017-05-14T22:34:06.368Z,13.90
2017-05-14T22:36:33.906Z,13.26
2017-05-14T22:39:01.626Z,13.30
2017-05-14T22:41:29.159Z,13.96
2017-05-14T22:43:56.823Z,13.14
2017-05-14T22:46:24.372Z,13.16
2017-05-14T22:48:51.899Z,14.80
2017-05-14T22:51:19.472Z,14.48
2017-05-14T22:53:47.095Z,15.70
2017-05-14T22:56:14.860Z,14.12
2017-05-14T22:58:42.419Z,15.70
2017-05-14T23:01:09.964Z,15.52
2017-05-14T23:03:37.526Z,15.14
2017-05-14T23:06:05.054Z,14.22
2017-05-14T23:08:32.623Z,14.32
2017-05-14T23:11:00.161Z,14.72
2017-05-14T23:13:27.847Z,13.48
2017-05-14T23:15:55.364Z,13.90
2017-05-14T23:18:22.890Z,15.18
2017-05-14T23:20:50.460Z,13.26
2017-05-14T23:23:17.988Z,14.34
2017-05-14T23:25:45.817Z,14.46
2017-05-14T23:28:13.379Z,14.94
2017-05-14T23:30:40.911Z,14.30
2017-05-14T23:33:08.534Z,14.82
2017-05-14T23:35:36.066Z,14.84
2017-05-14T23:38:03.844Z,14.00
2017-05-14T23:40:31.382Z,13.70
2017-05-14T23:42:58.975Z,15.20
2017-05-14T23:45:26.650Z,16.34
2017-05-14T23:47:54.179Z,16.54
2017-05-14T23:50:21.774Z,14.74
2017-05-14T23:52:49.269Z,16.40
2017-05-14T23:55:17.006Z,15.44
2017-05-14T23:57:44.548Z,15.70
